ADDS TAF Data INFO
IDs: Format: Raw Decoded Include METARs

Data at: 0226 UTC 14 Dec 2017

METAR for:KMGM (Montgomery/Dannely F, AL, US)
Text:KMGM 140153Z 22008KT 10SM CLR 08/M03 A2995 RMK AO2 SLP143 T00781033
Temperature: 7.8°C ( 46°F)
Dewpoint: -3.3°C ( 26°F) [RH = 45%]
Pressure (altimeter):29.95 inches Hg (1014.3 mb) [Sea level pressure: 1014.3 mb]
Winds:from the SW (220 degrees) at 9 MPH (8 knots; 4.1 m/s)
Visibility:10 or more sm (16+ km)
Ceiling:at least 12,000 feet AGL
Clouds:sky clear below 12,000 feet AGL

TAF for:KMGM (Montgomery/Dannely F, AL, US) issued at 2325 UTC 13 Dec 2017
Text:KMGM 132325Z 1400/1424 22005KT P6SM SKC
Forecast period:0000 to 1500 UTC 14 December 2017
Forecast type:FROM: standard forecast or significant change
Winds:from the SW (220 degrees) at 6 MPH (5 knots; 2.6 m/s)
Visibility:6 or more sm (10+ km)
Ceiling:at least 12,000 feet AGL
Clouds:clear skies
Text:FM141500 27005KT P6SM SKC
Forecast period:1500 UTC 14 December 2017 to 0000 UTC 15 December 2017
Forecast type:FROM: standard forecast or significant change
Winds:from the W (270 degrees) at 6 MPH (5 knots; 2.6 m/s)
Visibility:6 or more sm (10+ km)
Ceiling:at least 12,000 feet AGL
Clouds:clear skies